Time,TemperatureF,DewpointF,PressureIn,WindDirection,WindDirectionDegrees,WindSpeedMPH,WindSpeedGustMPH,Humidity,HourlyPrecipIn,Conditions,Clouds,dailyrainin,SolarRadiationWatts/m^2,SoftwareType,DateUTC
2013-07-30 00:02:00,55.0,54.0,-100.00,East,91,0.0,0.0,95,0.00,,,0.00,0.000000,,2013-07-30 05:02:00,
2013-07-30 00:23:00,55.0,54.0,-100.00,East,91,0.0,0.0,95,0.00,,,0.00,0.000000,,2013-07-30 05:23:00,
2013-07-30 00:33:00,55.0,54.0,-100.00,East,91,0.0,0.0,95,0.00,,,0.00,0.000000,,2013-07-30 05:33:00,
2013-07-30 00:45:00,55.0,54.0,-100.00,East,91,0.0,0.0,95,0.00,,,0.00,0.000000,,2013-07-30 05:45:00,
2013-07-30 00:53:00,55.0,54.0,-100.00,East,91,0.0,0.0,95,0.00,,,0.00,0.000000,,2013-07-30 05:53:00,
2013-07-30 01:02:00,56.0,53.0,-100.00,East,91,2.0,5.0,89,0.00,,,0.00,0.000000,,2013-07-30 06:02:00,
2013-07-30 01:23:00,56.0,53.0,-100.00,East,91,2.0,5.0,89,0.00,,,0.00,0.000000,,2013-07-30 06:23:00,
2013-07-30 01:33:00,56.0,53.0,-100.00,East,91,2.0,5.0,89,0.00,,,0.00,0.000000,,2013-07-30 06:33:00,
2013-07-30 01:43:00,56.0,53.0,-100.00,East,91,2.0,5.0,89,0.00,,,0.00,0.000000,,2013-07-30 06:43:00,
2013-07-30 01:53:00,56.0,53.0,-100.00,East,91,2.0,5.0,89,0.00,,,0.00,0.000000,,2013-07-30 06:53:00,
2013-07-30 02:02:00,55.0,53.0,-100.00,ESE,113,2.0,4.0,92,0.00,,,0.00,0.000000,,2013-07-30 07:02:00,
2013-07-30 02:23:00,55.0,53.0,-100.00,ESE,113,2.0,4.0,92,0.00,,,0.00,0.000000,,2013-07-30 07:23:00,
2013-07-30 02:33:00,55.0,53.0,-100.00,ESE,113,2.0,4.0,92,0.00,,,0.00,0.000000,,2013-07-30 07:33:00,
2013-07-30 02:43:00,55.0,53.0,-100.00,ESE,113,2.0,4.0,92,0.00,,,0.00,0.000000,,2013-07-30 07:43:00,
2013-07-30 02:53:00,55.0,53.0,-100.00,ESE,113,2.0,4.0,92,0.00,,,0.00,0.000000,,2013-07-30 07:53:00,
2013-07-30 03:02:00,54.0,53.0,-100.00,ESE,105,0.0,3.0,95,0.00,,,0.00,0.000000,,2013-07-30 08:02:00,
2013-07-30 03:23:00,54.0,53.0,-100.00,ESE,105,0.0,3.0,95,0.00,,,0.00,0.000000,,2013-07-30 08:23:00,
2013-07-30 03:33:00,54.0,53.0,-100.00,ESE,105,0.0,3.0,95,0.00,,,0.00,0.000000,,2013-07-30 08:33:00,
2013-07-30 03:43:00,54.0,53.0,-100.00,ESE,105,0.0,3.0,95,0.00,,,0.00,0.000000,,2013-07-30 08:43:00,
2013-07-30 03:53:00,54.0,53.0,-100.00,ESE,105,0.0,3.0,95,0.00,,,0.00,0.000000,,2013-07-30 08:53:00,
2013-07-30 04:02:00,54.0,53.0,-100.00,South,175,1.0,3.0,97,0.00,,,0.00,0.000000,,2013-07-30 09:02:00,
2013-07-30 04:23:00,54.0,53.0,-100.00,South,175,1.0,3.0,97,0.00,,,0.00,0.000000,,2013-07-30 09:23:00,
2013-07-30 04:33:00,54.0,53.0,-100.00,South,175,1.0,3.0,97,0.00,,,0.00,0.000000,,2013-07-30 09:33:00,
2013-07-30 04:43:00,54.0,53.0,-100.00,South,175,1.0,3.0,97,0.00,,,0.00,0.000000,,2013-07-30 09:43:00,
2013-07-30 04:53:00,54.0,53.0,-100.00,South,175,1.0,3.0,97,0.00,,,0.00,0.000000,,2013-07-30 09:53:00,
2013-07-30 05:02:00,55.0,54.0,-100.00,WSW,257,1.0,3.0,97,0.00,,,0.00,0.000000,,2013-07-30 10:02:00,
2013-07-30 05:23:00,55.0,54.0,-100.00,WSW,257,1.0,3.0,97,0.00,,,0.00,0.000000,,2013-07-30 10:23:00,
2013-07-30 05:33:00,55.0,54.0,-100.00,WSW,257,1.0,3.0,97,0.00,,,0.00,0.000000,,2013-07-30 10:33:00,
2013-07-30 05:44:00,55.0,54.0,-100.00,WSW,257,1.0,3.0,97,0.00,,,0.00,0.000000,,2013-07-30 10:44:00,
2013-07-30 05:52:00,55.0,54.0,-100.00,WSW,257,1.0,3.0,97,0.00,,,0.00,0.000000,,2013-07-30 10:52:00,
2013-07-30 06:33:00,56.0,55.0,-100.00,SSW,197,1.0,5.0,96,0.01,,,0.01,3.000000,,2013-07-30 11:33:00,
2013-07-30 06:43:00,56.0,55.0,-100.00,SSW,197,1.0,5.0,96,0.01,,,0.01,3.000000,,2013-07-30 11:43:00,
2013-07-30 06:53:00,56.0,55.0,-100.00,SSW,197,1.0,5.0,96,0.01,,,0.01,3.000000,,2013-07-30 11:53:00,
2013-07-30 07:02:00,57.0,56.0,-100.00,SW,236,1.0,6.0,98,0.00,,,0.01,12.000000,,2013-07-30 12:02:00,
2013-07-30 07:22:00,57.0,56.0,-100.00,SW,236,1.0,6.0,98,0.00,,,0.01,12.000000,,2013-07-30 12:22:00,
2013-07-30 07:33:00,57.0,56.0,-100.00,SW,236,1.0,6.0,98,0.00,,,0.01,12.000000,,2013-07-30 12:33:00,
2013-07-30 07:42:00,57.0,56.0,-100.00,SW,236,1.0,6.0,98,0.00,,,0.01,12.000000,,2013-07-30 12:42:00,
2013-07-30 07:53:00,57.0,56.0,-100.00,SW,236,1.0,6.0,98,0.00,,,0.01,12.000000,,2013-07-30 12:53:00,
2013-07-30 08:02:00,58.0,58.0,-100.00,West,260,5.0,13.0,99,0.01,,,0.02,35.000000,,2013-07-30 13:02:00,
2013-07-30 08:33:00,58.0,58.0,-100.00,West,260,5.0,13.0,99,0.01,,,0.02,35.000000,,2013-07-30 13:33:00,
2013-07-30 08:43:00,58.0,58.0,-100.00,West,260,5.0,13.0,99,0.01,,,0.02,35.000000,,2013-07-30 13:43:00,
2013-07-30 08:52:00,58.0,58.0,-100.00,West,260,5.0,13.0,99,0.01,,,0.02,35.000000,,2013-07-30 13:52:00,
2013-07-30 09:02:00,59.0,58.0,-100.00,SW,215,2.0,7.0,97,0.01,,,0.03,68.000000,,2013-07-30 14:02:00,
2013-07-30 09:22:00,59.0,58.0,-100.00,SW,215,2.0,7.0,97,0.01,,,0.03,68.000000,,2013-07-30 14:22:00,
2013-07-30 09:33:00,59.0,58.0,-100.00,SW,215,2.0,7.0,97,0.01,,,0.03,68.000000,,2013-07-30 14:33:00,
2013-07-30 09:43:00,59.0,58.0,-100.00,SW,215,2.0,7.0,97,0.01,,,0.03,68.000000,,2013-07-30 14:43:00,
2013-07-30 09:53:00,59.0,58.0,-100.00,SW,215,2.0,7.0,97,0.01,,,0.03,68.000000,,2013-07-30 14:53:00,
2013-07-30 10:02:00,60.0,59.0,-100.00,SW,223,2.0,4.0,95,0.00,,,0.03,104.000000,,2013-07-30 15:02:00,
2013-07-30 10:23:00,60.0,59.0,-100.00,SW,223,2.0,4.0,95,0.00,,,0.03,104.000000,,2013-07-30 15:23:00,
2013-07-30 10:33:00,60.0,59.0,-100.00,SW,223,2.0,4.0,95,0.00,,,0.03,104.000000,,2013-07-30 15:33:00,
2013-07-30 10:43:00,60.0,59.0,-100.00,SW,223,2.0,4.0,95,0.00,,,0.03,104.000000,,2013-07-30 15:43:00,
2013-07-30 10:53:00,60.0,59.0,-100.00,SW,223,2.0,4.0,95,0.00,,,0.03,104.000000,,2013-07-30 15:53:00,
2013-07-30 11:02:00,61.0,59.0,-100.00,SW,222,3.0,5.0,94,0.00,,,0.03,124.000000,,2013-07-30 16:02:00,
2013-07-30 11:23:00,61.0,59.0,-100.00,SW,222,3.0,5.0,94,0.00,,,0.03,124.000000,,2013-07-30 16:23:00,
2013-07-30 11:33:00,61.0,59.0,-100.00,SW,222,3.0,5.0,94,0.00,,,0.03,124.000000,,2013-07-30 16:33:00,
2013-07-30 11:44:00,61.0,59.0,-100.00,SW,222,3.0,5.0,94,0.00,,,0.03,124.000000,,2013-07-30 16:44:00,
2013-07-30 11:52:00,61.0,59.0,-100.00,SW,222,3.0,5.0,94,0.00,,,0.03,124.000000,,2013-07-30 16:52:00,
2013-07-30 12:02:00,65.0,61.0,-100.00,SW,220,2.0,7.0,86,0.00,,,-99.99,255.000000,,2013-07-30 17:02:00,
2013-07-30 12:22:00,65.0,61.0,-100.00,SW,220,2.0,7.0,86,0.00,,,-99.99,255.000000,,2013-07-30 17:22:00,
2013-07-30 12:32:00,65.0,61.0,-100.00,SW,220,2.0,7.0,86,0.00,,,-99.99,255.000000,,2013-07-30 17:32:00,
2013-07-30 12:43:00,65.0,61.0,-100.00,SW,220,2.0,7.0,86,0.00,,,-99.99,255.000000,,2013-07-30 17:43:00,
2013-07-30 12:54:00,65.0,61.0,-100.00,SW,220,2.0,7.0,86,0.00,,,-99.99,255.000000,,2013-07-30 17:54:00,
2013-07-30 13:02:00,64.0,59.0,-100.00,SW,230,4.0,7.0,85,0.00,,,0.03,268.000000,,2013-07-30 18:02:00,
2013-07-30 13:23:00,64.0,59.0,-100.00,SW,230,4.0,7.0,85,0.00,,,0.03,268.000000,,2013-07-30 18:23:00,
2013-07-30 13:32:00,64.0,59.0,-100.00,SW,230,4.0,7.0,85,0.00,,,0.03,268.000000,,2013-07-30 18:32:00,
2013-07-30 13:43:00,64.0,59.0,-100.00,SW,230,4.0,7.0,85,0.00,,,0.03,268.000000,,2013-07-30 18:43:00,
2013-07-30 13:52:00,64.0,59.0,-100.00,SW,230,4.0,7.0,85,0.00,,,0.03,268.000000,,2013-07-30 18:52:00,
2013-07-30 14:02:00,68.0,61.0,-100.00,WSW,237,5.0,9.0,77,0.00,,,0.03,445.000000,,2013-07-30 19:02:00,
2013-07-30 14:23:00,68.0,61.0,-100.00,WSW,237,5.0,9.0,77,0.00,,,0.03,445.000000,,2013-07-30 19:23:00,
2013-07-30 14:33:00,68.0,61.0,-100.00,WSW,237,5.0,9.0,77,0.00,,,0.03,445.000000,,2013-07-30 19:33:00,
2013-07-30 14:44:00,68.0,61.0,-100.00,WSW,237,5.0,9.0,77,0.00,,,0.03,445.000000,,2013-07-30 19:44:00,
2013-07-30 14:52:00,68.0,61.0,-100.00,WSW,237,5.0,9.0,77,0.00,,,0.03,445.000000,,2013-07-30 19:52:00,
2013-07-30 15:02:00,70.0,58.0,-100.00,WSW,244,5.0,13.0,66,0.00,,,0.03,522.000000,,2013-07-30 20:02:00,
2013-07-30 15:22:00,70.0,58.0,-100.00,WSW,244,5.0,13.0,66,0.00,,,0.03,522.000000,,2013-07-30 20:22:00,
2013-07-30 15:33:00,70.0,58.0,-100.00,WSW,244,5.0,13.0,66,0.00,,,0.03,522.000000,,2013-07-30 20:33:00,
2013-07-30 15:43:00,70.0,58.0,-100.00,WSW,244,5.0,13.0,66,0.00,,,0.03,522.000000,,2013-07-30 20:43:00,
2013-07-30 15:52:00,70.0,58.0,-100.00,WSW,244,5.0,13.0,66,0.00,,,0.03,522.000000,,2013-07-30 20:52:00,
2013-07-30 16:02:00,68.0,58.0,-100.00,SW,235,5.0,11.0,71,0.00,,,0.03,306.000000,,2013-07-30 21:02:00,
2013-07-30 16:32:00,68.0,58.0,-100.00,SW,235,5.0,11.0,71,0.00,,,0.03,306.000000,,2013-07-30 21:32:00,
2013-07-30 16:42:00,68.0,58.0,-100.00,SW,235,5.0,11.0,71,0.00,,,0.03,306.000000,,2013-07-30 21:42:00,
2013-07-30 16:53:00,68.0,58.0,-100.00,SW,235,5.0,11.0,71,0.00,,,0.03,306.000000,,2013-07-30 21:53:00,
2013-07-30 17:02:00,67.0,59.0,-100.00,WSW,239,3.0,9.0,76,0.00,,,0.03,148.000000,,2013-07-30 22:02:00,
2013-07-30 17:32:00,67.0,59.0,-100.00,WSW,239,3.0,9.0,76,0.00,,,0.03,148.000000,,2013-07-30 22:32:00,
2013-07-30 17:43:00,67.0,59.0,-100.00,WSW,239,3.0,9.0,76,0.00,,,0.03,148.000000,,2013-07-30 22:43:00,
2013-07-30 17:53:00,67.0,59.0,-100.00,WSW,239,3.0,9.0,76,0.00,,,0.03,148.000000,,2013-07-30 22:53:00,
2013-07-30 18:02:00,68.0,59.0,-100.00,SW,234,3.0,9.0,74,0.00,,,0.03,185.000000,,2013-07-30 23:02:00,
2013-07-30 18:23:00,68.0,59.0,-100.00,SW,234,3.0,9.0,74,0.00,,,0.03,185.000000,,2013-07-30 23:23:00,
2013-07-30 18:32:00,68.0,59.0,-100.00,SW,234,3.0,9.0,74,0.00,,,0.03,185.000000,,2013-07-30 23:32:00,
2013-07-30 18:42:00,68.0,59.0,-100.00,SW,234,3.0,9.0,74,0.00,,,0.03,185.000000,,2013-07-30 23:42:00,
2013-07-30 18:53:00,68.0,59.0,-100.00,SW,234,3.0,9.0,74,0.00,,,0.03,185.000000,,2013-07-30 23:53:00,
2013-07-30 19:02:00,65.0,59.0,-100.00,SW,216,1.0,8.0,82,0.00,,,0.03,73.000000,,2013-07-31 00:02:00,
2013-07-30 19:22:00,65.0,59.0,-100.00,SW,216,1.0,8.0,82,0.00,,,0.03,73.000000,,2013-07-31 00:22:00,
2013-07-30 19:32:00,65.0,59.0,-100.00,SW,216,1.0,8.0,82,0.00,,,0.03,73.000000,,2013-07-31 00:32:00,
2013-07-30 19:43:00,65.0,59.0,-100.00,SW,216,1.0,8.0,82,0.00,,,0.03,73.000000,,2013-07-31 00:43:00,
2013-07-30 19:53:00,65.0,59.0,-100.00,SW,216,1.0,8.0,82,0.00,,,0.03,73.000000,,2013-07-31 00:53:00,
2013-07-30 20:02:00,64.0,59.0,-100.00,SW,231,2.0,5.0,85,0.00,,,0.03,16.000000,,2013-07-31 01:02:00,
2013-07-30 20:22:00,64.0,59.0,-100.00,SW,231,2.0,5.0,85,0.00,,,0.03,16.000000,,2013-07-31 01:22:00,
2013-07-30 20:32:00,64.0,59.0,-100.00,SW,231,2.0,5.0,85,0.00,,,0.03,16.000000,,2013-07-31 01:32:00,
2013-07-30 20:43:00,64.0,59.0,-100.00,SW,231,2.0,5.0,85,0.00,,,0.03,16.000000,,2013-07-31 01:43:00,
2013-07-30 20:52:00,64.0,59.0,-100.00,SW,231,2.0,5.0,85,0.00,,,0.03,16.000000,,2013-07-31 01:52:00,
2013-07-30 21:02:00,62.0,59.0,-100.00,SSE,163,0.0,4.0,90,0.00,,,0.03,2.000000,,2013-07-31 02:02:00,
2013-07-30 21:22:00,62.0,59.0,-100.00,SSE,163,0.0,4.0,90,0.00,,,0.03,2.000000,,2013-07-31 02:22:00,
2013-07-30 21:32:00,62.0,59.0,-100.00,SSE,163,0.0,4.0,90,0.00,,,0.03,2.000000,,2013-07-31 02:32:00,
2013-07-30 21:43:00,62.0,59.0,-100.00,SSE,163,0.0,4.0,90,0.00,,,0.03,2.000000,,2013-07-31 02:43:00,
2013-07-30 21:52:00,62.0,59.0,-100.00,SSE,163,0.0,4.0,90,0.00,,,0.03,2.000000,,2013-07-31 02:52:00,
2013-07-30 22:02:00,62.0,60.0,-100.00,SSE,167,1.0,3.0,92,0.00,,,0.03,0.000000,,2013-07-31 03:02:00,
2013-07-30 22:22:00,62.0,60.0,-100.00,SSE,167,1.0,3.0,92,0.00,,,0.03,0.000000,,2013-07-31 03:22:00,
2013-07-30 22:32:00,62.0,60.0,-100.00,SSE,167,1.0,3.0,92,0.00,,,0.03,0.000000,,2013-07-31 03:32:00,
2013-07-30 22:42:00,62.0,60.0,-100.00,SSE,167,1.0,3.0,92,0.00,,,0.03,0.000000,,2013-07-31 03:42:00,
2013-07-30 22:52:00,62.0,60.0,-100.00,SSE,167,1.0,3.0,92,0.00,,,0.03,0.000000,,2013-07-31 03:52:00,
2013-07-30 23:02:00,61.0,59.0,-100.00,SSE,160,0.0,3.0,94,0.00,,,0.03,0.000000,,2013-07-31 04:02:00,
2013-07-30 23:22:00,61.0,59.0,-100.00,SSE,160,0.0,3.0,94,0.00,,,0.03,0.000000,,2013-07-31 04:22:00,
2013-07-30 23:32:00,61.0,59.0,-100.00,SSE,160,0.0,3.0,94,0.00,,,0.03,0.000000,,2013-07-31 04:32:00,
2013-07-30 23:42:00,61.0,59.0,-100.00,SSE,160,0.0,3.0,94,0.00,,,0.03,0.000000,,2013-07-31 04:42:00,
2013-07-30 23:52:00,61.0,59.0,-100.00,SSE,160,0.0,3.0,94,0.00,,,0.03,0.000000,,2013-07-31 04:52:00,